createdAt,value
2022-10-13T00:00:45.812Z,11.80
2022-10-13T00:03:33.899Z,13.50
2022-10-13T00:06:09.025Z,12.10
2022-10-13T00:08:42.580Z,12.90
2022-10-13T00:11:18.865Z,15.70
2022-10-13T00:13:52.137Z,11.10
2022-10-13T00:16:25.251Z,16.40
2022-10-13T00:18:57.680Z,12.40
2022-10-13T00:21:31.040Z,13.40
2022-10-13T00:24:03.607Z,13.90
2022-10-13T00:26:35.804Z,12.10
2022-10-13T00:29:08.067Z,12.10
2022-10-13T00:31:40.362Z,10.70
2022-10-13T00:34:12.852Z,13.80
2022-10-13T00:36:45.068Z,12.70
2022-10-13T00:39:17.605Z,11.80
2022-10-13T00:41:49.932Z,12.40
2022-10-13T00:45:02.124Z,13.00
2022-10-13T00:47:40.759Z,11.50
2022-10-13T00:50:16.377Z,11.70
2022-10-13T00:55:24.983Z,11.70
2022-10-13T00:58:04.938Z,14.00
2022-10-13T01:00:38.079Z,12.20
2022-10-13T01:03:11.439Z,14.20
2022-10-13T01:05:44.848Z,11.90
2022-10-13T01:08:19.375Z,12.80
2022-10-13T01:10:58.412Z,14.80
2022-10-13T01:13:40.337Z,11.90
2022-10-13T01:16:24.733Z,12.90
2022-10-13T01:19:02.983Z,11.10
2022-10-13T01:21:43.778Z,12.00
2022-10-13T01:24:41.484Z,11.40
2022-10-13T01:27:38.429Z,11.70
2022-10-13T01:30:16.344Z,11.80
2022-10-13T01:33:02.680Z,13.10
2022-10-13T01:38:22.333Z,12.20
2022-10-13T01:41:03.487Z,13.60
2022-10-13T01:43:39.172Z,12.30
2022-10-13T01:48:47.204Z,12.70
2022-10-13T01:51:22.844Z,12.10
2022-10-13T01:53:55.000Z,13.80
2022-10-13T01:56:27.325Z,15.50
2022-10-13T01:59:02.960Z,14.90
2022-10-13T02:01:47.683Z,12.20
2022-10-13T02:04:31.525Z,13.20
2022-10-13T02:07:13.269Z,12.60
2022-10-13T02:09:52.694Z,11.00
2022-10-13T02:12:32.076Z,12.20
2022-10-13T02:15:08.860Z,13.30
2022-10-13T02:17:41.640Z,15.20
2022-10-13T02:20:16.357Z,15.20
2022-10-13T02:22:55.733Z,15.20
2022-10-13T02:25:29.008Z,15.50
2022-10-13T02:28:02.730Z,16.70
2022-10-13T02:30:35.818Z,13.80
2022-10-13T02:33:09.213Z,13.50
2022-10-13T02:35:40.155Z,13.50
2022-10-13T02:38:12.775Z,24.60
2022-10-13T02:40:45.268Z,17.40
2022-10-13T02:43:17.900Z,16.70
2022-10-13T02:45:50.076Z,13.00
2022-10-13T02:48:22.697Z,18.90
2022-10-13T02:50:54.971Z,15.10
2022-10-13T03:06:36.313Z,14.40
2022-10-13T03:09:08.588Z,15.60
2022-10-13T03:11:40.791Z,14.30
2022-10-13T03:14:12.944Z,14.90
2022-10-13T03:16:45.048Z,14.30
2022-10-13T03:19:17.119Z,15.90
2022-10-13T03:21:49.280Z,14.50
2022-10-13T03:24:21.405Z,16.40
2022-10-13T03:26:53.669Z,17.00
2022-10-13T03:29:25.969Z,17.70
2022-10-13T03:31:58.113Z,13.00
2022-10-13T03:34:30.213Z,14.20
2022-10-13T03:37:02.802Z,15.00
2022-10-13T03:39:34.949Z,17.70
2022-10-13T03:42:07.800Z,14.70
2022-10-13T03:44:40.379Z,16.20
2022-10-13T03:47:12.483Z,13.80
2022-10-13T03:49:44.958Z,18.20
2022-10-13T03:52:17.351Z,16.70
2022-10-13T03:54:49.943Z,14.90
2022-10-13T03:57:22.066Z,14.20
2022-10-13T03:59:56.185Z,14.40
2022-10-13T04:02:28.798Z,14.10
2022-10-13T04:05:01.045Z,15.30
2022-10-13T04:07:33.651Z,16.50
2022-10-13T04:10:09.041Z,14.90
2022-10-13T04:12:43.610Z,12.70
2022-10-13T04:15:15.969Z,14.60
2022-10-13T04:17:48.112Z,14.20
2022-10-13T04:20:20.963Z,14.80
2022-10-13T04:22:54.275Z,15.60
2022-10-13T04:25:26.452Z,14.70
2022-10-13T04:27:58.545Z,14.10
2022-10-13T04:30:31.405Z,15.20
2022-10-13T04:33:03.731Z,15.20
2022-10-13T04:35:40.453Z,16.80
2022-10-13T04:38:12.577Z,13.80
2022-10-13T04:40:44.637Z,18.70
2022-10-13T04:43:16.763Z,16.30
2022-10-13T04:45:49.268Z,14.80
2022-10-13T04:48:21.408Z,14.40
2022-10-13T04:51:03.876Z,15.60
2022-10-13T04:53:36.352Z,15.40
2022-10-13T04:56:11.846Z,15.90
2022-10-13T04:58:46.058Z,17.60
2022-10-13T05:01:22.338Z,15.00
2022-10-13T05:03:56.392Z,15.30
2022-10-13T05:06:31.002Z,19.10
2022-10-13T05:09:03.180Z,18.80
2022-10-13T05:11:35.403Z,14.40
2022-10-13T05:14:07.497Z,14.50
2022-10-13T05:16:39.573Z,13.00
2022-10-13T05:19:11.671Z,14.50
2022-10-13T05:21:47.885Z,15.90
2022-10-13T05:24:36.758Z,17.50
2022-10-13T05:27:12.981Z,15.40
2022-10-13T05:29:45.233Z,18.10
2022-10-13T05:32:17.864Z,17.90
2022-10-13T05:34:51.953Z,17.20
2022-10-13T05:37:24.183Z,14.40
2022-10-13T05:39:56.269Z,14.40
2022-10-13T05:42:29.909Z,14.80
2022-10-13T05:45:02.188Z,15.10
2022-10-13T05:47:34.347Z,15.20
2022-10-13T05:50:07.389Z,15.50
2022-10-13T05:52:39.746Z,14.00
2022-10-13T05:55:15.685Z,13.70
2022-10-13T06:00:22.744Z,12.10
2022-10-13T06:02:58.523Z,13.20
2022-10-13T06:08:02.095Z,11.90
2022-10-13T06:10:34.258Z,14.00
2022-10-13T06:13:06.453Z,13.80
2022-10-13T06:15:38.694Z,16.70
2022-10-13T06:18:12.233Z,15.10
2022-10-13T06:20:44.952Z,15.00
2022-10-13T06:23:17.182Z,15.60
2022-10-13T06:25:53.364Z,15.00
2022-10-13T06:28:25.586Z,17.50
2022-10-13T06:30:57.769Z,18.40
2022-10-13T06:33:29.913Z,14.40
2022-10-13T06:36:06.698Z,14.10
2022-10-13T06:38:38.793Z,12.10
2022-10-13T06:41:11.203Z,14.80
2022-10-13T06:43:43.403Z,14.20
2022-10-13T06:46:15.607Z,17.30
2022-10-13T06:48:50.005Z,14.50
2022-10-13T06:51:22.619Z,12.40
2022-10-13T06:53:56.627Z,11.70
2022-10-13T06:56:30.205Z,13.50
2022-10-13T06:59:02.439Z,12.20
2022-10-13T07:01:37.891Z,12.20
2022-10-13T07:04:13.884Z,12.70
2022-10-13T07:06:46.195Z,12.90
2022-10-13T07:09:18.343Z,12.90
2022-10-13T07:11:50.734Z,11.20
2022-10-13T07:14:22.917Z,12.30
2022-10-13T07:16:55.060Z,15.40
2022-10-13T07:19:27.525Z,12.60
2022-10-13T07:21:59.653Z,12.80
2022-10-13T07:24:31.887Z,10.00
2022-10-13T07:27:07.801Z,15.30
2022-10-13T07:29:51.402Z,11.50
2022-10-13T07:32:23.519Z,13.70
2022-10-13T07:34:56.590Z,12.60
2022-10-13T07:37:28.859Z,12.80
2022-10-13T07:40:01.386Z,13.00
2022-10-13T07:42:33.502Z,11.60
2022-10-13T07:45:06.577Z,13.80
2022-10-13T07:47:38.725Z,11.60
2022-10-13T07:50:11.978Z,13.10
2022-10-13T07:52:44.315Z,11.90
2022-10-13T07:55:16.543Z,10.00
2022-10-13T07:57:48.851Z,10.10
2022-10-13T08:00:21.793Z,10.90
2022-10-13T08:02:54.127Z,10.80
2022-10-13T08:05:26.235Z,11.40
2022-10-13T08:07:58.751Z,9.30
2022-10-13T08:10:31.076Z,24.10
2022-10-13T08:13:03.223Z,11.50
2022-10-13T08:15:35.347Z,12.40
2022-10-13T08:18:07.499Z,11.30
2022-10-13T08:20:43.820Z,15.00
2022-10-13T08:23:16.423Z,14.70
2022-10-13T08:25:48.789Z,12.50
2022-10-13T08:28:22.922Z,13.90
2022-10-13T08:30:57.819Z,14.50
2022-10-13T08:33:31.119Z,11.10
2022-10-13T08:36:03.437Z,14.60
2022-10-13T08:38:35.549Z,13.40
2022-10-13T08:41:19.544Z,11.50
2022-10-13T08:44:33.090Z,11.80
2022-10-13T08:46:54.620Z,13.00
2022-10-13T08:49:26.765Z,12.10
2022-10-13T08:51:59.911Z,11.40
2022-10-13T08:54:32.204Z,14.70
2022-10-13T08:57:05.296Z,12.80
2022-10-13T08:59:37.670Z,12.60
2022-10-13T09:02:15.370Z,33.60
2022-10-13T09:04:50.944Z,42.30
2022-10-13T09:07:25.748Z,13.40
2022-10-13T09:09:58.612Z,12.40
2022-10-13T09:12:31.692Z,12.40
2022-10-13T09:15:07.486Z,13.30
2022-10-13T09:17:41.804Z,11.80
2022-10-13T09:20:22.544Z,12.50
2022-10-13T09:23:07.155Z,11.60
2022-10-13T09:25:45.397Z,10.90
2022-10-13T09:28:23.691Z,9.60
2022-10-13T09:31:10.282Z,9.00
2022-10-13T09:33:46.975Z,11.70
2022-10-13T09:36:19.566Z,10.60
2022-10-13T09:39:09.550Z,13.10
2022-10-13T09:41:42.905Z,13.10
2022-10-13T09:44:19.294Z,12.20
2022-10-13T09:46:56.604Z,10.50
2022-10-13T09:49:35.889Z,9.50
2022-10-13T09:52:16.923Z,9.00
2022-10-13T09:54:51.539Z,11.00
2022-10-13T09:57:32.998Z,10.10
2022-10-13T10:00:18.375Z,9.00
2022-10-13T10:02:55.364Z,8.00
2022-10-13T10:05:30.628Z,8.60
2022-10-13T10:08:05.520Z,6.80
2022-10-13T10:10:40.956Z,7.40
2022-10-13T10:15:54.344Z,7.50
2022-10-13T10:18:38.564Z,5.50
2022-10-13T10:21:19.947Z,7.40
2022-10-13T10:24:01.249Z,5.80
2022-10-13T10:26:47.500Z,6.40
2022-10-13T10:29:30.760Z,5.70
2022-10-13T10:32:16.336Z,6.70
2022-10-13T10:34:54.786Z,6.70
2022-10-13T10:37:41.475Z,6.10
2022-10-13T10:40:25.519Z,8.10
2022-10-13T10:43:16.761Z,7.40
2022-10-13T10:45:50.539Z,8.10
2022-10-13T10:48:25.350Z,7.40
2022-10-13T10:50:58.320Z,8.00
2022-10-13T10:53:39.523Z,8.50
2022-10-13T10:56:23.056Z,7.80
2022-10-13T10:59:02.669Z,6.90
2022-10-13T11:01:40.504Z,6.70
2022-10-13T11:04:36.453Z,6.80
2022-10-13T11:07:14.364Z,6.60
2022-10-13T11:10:19.016Z,5.90
2022-10-13T11:13:22.344Z,6.60
2022-10-13T11:15:55.604Z,5.00
2022-10-13T11:19:10.448Z,4.70
2022-10-13T11:22:19.776Z,6.20
2022-10-13T11:25:01.863Z,6.40
2022-10-13T11:27:47.054Z,5.40
2022-10-13T11:30:50.285Z,6.40
2022-10-13T11:33:56.514Z,4.50
2022-10-13T11:36:55.840Z,5.10
2022-10-13T11:40:06.970Z,5.10
2022-10-13T11:43:23.651Z,3.90
2022-10-13T11:46:08.344Z,5.20
2022-10-13T11:49:02.981Z,3.40
2022-10-13T11:51:58.011Z,4.90
2022-10-13T11:54:37.973Z,4.90
2022-10-13T11:57:22.246Z,4.40
2022-10-13T11:59:56.445Z,4.20
2022-10-13T12:02:29.809Z,5.10
2022-10-13T12:05:08.924Z,4.00
2022-10-13T12:07:44.076Z,5.70
2022-10-13T12:10:24.862Z,4.40
2022-10-13T12:12:58.538Z,4.40
2022-10-13T12:15:36.224Z,4.60
2022-10-13T12:18:23.615Z,4.60
2022-10-13T12:20:57.994Z,4.80
2022-10-13T12:23:31.491Z,4.20
2022-10-13T12:26:04.410Z,5.00
2022-10-13T12:28:50.929Z,4.10
2022-10-13T12:31:25.931Z,3.90
2022-10-13T12:33:59.760Z,4.50
2022-10-13T12:36:33.879Z,3.50
2022-10-13T12:39:12.083Z,5.00
2022-10-13T12:41:47.906Z,4.50
2022-10-13T12:44:22.273Z,4.60
2022-10-13T12:46:58.866Z,4.00
2022-10-13T12:49:32.863Z,4.50
2022-10-13T12:52:14.680Z,5.60
2022-10-13T12:54:53.460Z,4.80
2022-10-13T12:57:36.261Z,3.60
2022-10-13T13:00:24.313Z,4.30
2022-10-13T13:02:58.626Z,3.20
2022-10-13T13:05:36.259Z,5.60
2022-10-13T13:08:23.649Z,4.70
2022-10-13T13:10:59.895Z,3.70
2022-10-13T13:13:32.739Z,3.90
2022-10-13T13:16:18.921Z,4.80
2022-10-13T13:18:51.672Z,4.30
2022-10-13T13:21:23.909Z,4.60
2022-10-13T13:23:55.993Z,4.30
2022-10-13T13:26:28.223Z,3.60
2022-10-13T13:29:00.395Z,2.40
2022-10-13T13:31:32.480Z,4.30
2022-10-13T13:34:04.575Z,5.60
2022-10-13T13:36:36.781Z,3.80
2022-10-13T13:39:13.736Z,5.60
2022-10-13T13:41:45.870Z,3.60
2022-10-13T13:44:18.028Z,3.30
2022-10-13T13:46:50.092Z,5.30
2022-10-13T13:49:22.284Z,4.20
2022-10-13T13:51:54.389Z,4.00
2022-10-13T13:54:26.527Z,4.20
2022-10-13T13:56:58.997Z,4.30
2022-10-13T13:59:31.369Z,3.90
2022-10-13T14:02:03.497Z,4.00
2022-10-13T14:04:35.986Z,3.50
2022-10-13T14:07:08.113Z,4.20
2022-10-13T14:09:40.389Z,4.40
2022-10-13T14:12:12.834Z,4.80
2022-10-13T14:14:44.990Z,4.50
2022-10-13T14:17:17.265Z,5.60
2022-10-13T14:19:49.324Z,5.10
2022-10-13T14:22:21.735Z,5.30
2022-10-13T14:24:54.199Z,5.90
2022-10-13T14:27:26.367Z,4.50
2022-10-13T14:29:58.465Z,5.40
2022-10-13T14:32:30.564Z,5.90
2022-10-13T14:35:02.590Z,6.20
2022-10-13T14:37:35.033Z,5.50
2022-10-13T14:40:09.171Z,5.70
2022-10-13T14:42:42.682Z,5.50
2022-10-13T14:45:15.947Z,6.80
2022-10-13T14:47:48.193Z,6.30
2022-10-13T14:50:20.353Z,6.00
2022-10-13T14:52:52.424Z,6.40
2022-10-13T14:55:24.665Z,6.20
2022-10-13T14:57:56.703Z,6.30
2022-10-13T15:00:28.919Z,4.80
2022-10-13T15:03:01.017Z,6.30
2022-10-13T15:05:33.496Z,6.20
2022-10-13T15:08:05.978Z,7.00
2022-10-13T15:10:38.848Z,7.20
2022-10-13T15:13:10.909Z,6.60
2022-10-13T15:15:49.943Z,8.60
2022-10-13T15:18:25.791Z,7.50
2022-10-13T15:21:00.771Z,6.40
2022-10-13T15:23:32.891Z,9.60
2022-10-13T15:26:05.749Z,8.00
2022-10-13T15:28:41.081Z,7.30
2022-10-13T15:31:14.027Z,9.90
2022-10-13T15:33:49.219Z,7.90
2022-10-13T15:36:22.238Z,7.80
2022-10-13T15:38:54.767Z,7.40
2022-10-13T15:41:26.884Z,8.40
2022-10-13T15:43:58.984Z,8.10
2022-10-13T15:46:31.612Z,9.40
2022-10-13T15:49:03.792Z,7.60
2022-10-13T15:51:36.140Z,8.60
2022-10-13T15:54:08.525Z,8.00
2022-10-13T15:56:40.591Z,10.00
2022-10-13T15:59:12.772Z,8.60
2022-10-13T16:01:45.004Z,9.70
2022-10-13T16:04:17.171Z,9.00
2022-10-13T16:06:49.307Z,9.10
2022-10-13T16:09:21.480Z,10.60
2022-10-13T16:11:55.340Z,7.60
2022-10-13T16:14:27.438Z,9.80
2022-10-13T16:16:59.556Z,8.40
2022-10-13T16:19:31.643Z,8.10
2022-10-13T16:22:04.131Z,9.20
2022-10-13T16:24:36.344Z,8.40
2022-10-13T16:27:09.965Z,10.50
2022-10-13T16:29:42.038Z,10.40
2022-10-13T16:32:14.212Z,9.10
2022-10-13T16:34:47.735Z,8.90
2022-10-13T16:37:20.272Z,9.40
2022-10-13T16:39:52.638Z,8.40
2022-10-13T16:42:24.909Z,9.00
2022-10-13T16:44:57.077Z,9.10
2022-10-13T16:47:29.292Z,10.00
2022-10-13T16:50:01.347Z,10.10
2022-10-13T16:52:33.585Z,8.70
2022-10-13T16:55:06.672Z,8.80
2022-10-13T16:57:38.789Z,8.30
2022-10-13T17:00:12.928Z,8.50
2022-10-13T17:02:45.421Z,11.70
2022-10-13T17:05:17.808Z,9.20
2022-10-13T17:07:49.935Z,8.80
2022-10-13T17:10:21.986Z,8.60
2022-10-13T17:12:54.651Z,11.10
2022-10-13T17:15:26.852Z,9.30
2022-10-13T17:17:58.910Z,8.70
2022-10-13T17:20:31.121Z,10.70
2022-10-13T17:23:03.192Z,7.80
2022-10-13T17:25:36.704Z,8.00
2022-10-13T17:28:08.764Z,8.70
2022-10-13T17:30:40.938Z,7.30
2022-10-13T17:33:13.400Z,6.60
2022-10-13T17:35:45.483Z,8.50
2022-10-13T17:38:17.511Z,7.90
2022-10-13T17:40:49.567Z,7.70
2022-10-13T17:43:21.606Z,7.40
2022-10-13T17:45:53.791Z,8.00
2022-10-13T17:48:25.987Z,10.90
2022-10-13T17:51:02.496Z,7.20
2022-10-13T17:53:34.604Z,8.20
2022-10-13T17:56:09.141Z,8.40
2022-10-13T17:58:43.155Z,9.70
2022-10-13T18:01:18.839Z,11.40
2022-10-13T18:03:54.343Z,10.00
2022-10-13T18:06:26.789Z,11.50
2022-10-13T18:08:58.878Z,12.90
2022-10-13T18:11:31.061Z,13.60
2022-10-13T18:14:03.315Z,11.00
2022-10-13T18:16:36.607Z,14.90
2022-10-13T18:19:08.706Z,15.50
2022-10-13T18:21:40.800Z,13.50
2022-10-13T18:24:13.555Z,11.20
2022-10-13T18:26:45.729Z,11.10
2022-10-13T18:29:17.883Z,12.20
2022-10-13T18:31:50.028Z,12.40
2022-10-13T18:34:22.267Z,11.60
2022-10-13T18:36:56.073Z,11.50
2022-10-13T18:39:30.318Z,12.30
2022-10-13T18:42:02.543Z,13.50
2022-10-13T18:44:34.583Z,10.90
2022-10-13T18:47:07.436Z,11.90
2022-10-13T18:49:39.488Z,15.10
2022-10-13T18:52:12.131Z,14.50
2022-10-13T18:54:45.612Z,12.80
2022-10-13T18:57:17.889Z,15.50
2022-10-13T18:59:50.147Z,15.70
2022-10-13T19:02:22.439Z,15.40
2022-10-13T19:04:54.612Z,17.70
2022-10-13T19:07:26.856Z,14.60
2022-10-13T19:09:58.923Z,14.20
2022-10-13T19:12:30.992Z,14.20
2022-10-13T19:15:03.135Z,14.60
2022-10-13T19:17:35.353Z,14.30
2022-10-13T19:20:09.659Z,15.30
2022-10-13T19:22:41.752Z,13.30
2022-10-13T19:25:13.987Z,15.60
2022-10-13T19:27:46.104Z,13.90
2022-10-13T19:30:18.537Z,16.80
2022-10-13T19:32:50.652Z,17.40
2022-10-13T19:35:22.770Z,16.00
2022-10-13T19:37:54.852Z,18.50
2022-10-13T19:40:26.988Z,18.00
2022-10-13T19:42:59.964Z,23.30
2022-10-13T19:45:32.380Z,20.10
2022-10-13T19:48:04.881Z,19.10
2022-10-13T19:50:37.916Z,20.30
2022-10-13T19:53:10.278Z,21.60
2022-10-13T19:55:44.874Z,21.30
2022-10-13T19:58:18.003Z,20.70
2022-10-13T20:00:50.753Z,20.90
2022-10-13T20:03:22.840Z,20.80
2022-10-13T20:05:54.932Z,18.40
2022-10-13T20:08:27.083Z,17.50
2022-10-13T20:11:00.790Z,15.10
2022-10-13T20:13:32.843Z,16.70
2022-10-13T20:16:11.128Z,16.80
2022-10-13T20:18:43.896Z,16.60
2022-10-13T20:21:17.939Z,15.20
2022-10-13T20:23:50.013Z,15.40
2022-10-13T20:26:22.854Z,17.50
2022-10-13T20:28:56.147Z,16.10
2022-10-13T20:31:29.875Z,17.80
2022-10-13T20:34:02.324Z,18.70
2022-10-13T20:36:38.570Z,18.90
2022-10-13T20:39:11.402Z,18.40
2022-10-13T20:41:43.892Z,16.70
2022-10-13T20:44:16.004Z,19.30
2022-10-13T20:46:48.083Z,14.90
2022-10-13T20:49:20.280Z,18.50
2022-10-13T20:51:52.303Z,16.80
2022-10-13T20:54:25.015Z,14.90
2022-10-13T20:56:58.022Z,19.30
2022-10-13T20:59:30.147Z,18.80
2022-10-13T21:02:02.249Z,18.70
2022-10-13T21:04:34.593Z,18.70
2022-10-13T21:07:06.727Z,19.50
2022-10-13T21:09:39.415Z,17.60
2022-10-13T21:12:11.652Z,17.50
2022-10-13T21:14:43.791Z,18.20
2022-10-13T21:17:16.005Z,16.80
2022-10-13T21:19:48.371Z,17.80
2022-10-13T21:22:20.897Z,17.30
2022-10-13T21:24:53.163Z,15.60
2022-10-13T21:27:25.428Z,15.80
2022-10-13T21:29:57.514Z,16.30
2022-10-13T21:32:30.789Z,12.80
2022-10-13T21:35:02.889Z,15.20
2022-10-13T21:37:38.113Z,13.90
2022-10-13T21:40:12.339Z,12.50
2022-10-13T21:42:44.492Z,16.90
2022-10-13T21:45:16.694Z,12.90
2022-10-13T21:47:51.280Z,14.10
2022-10-13T21:50:23.505Z,12.80
2022-10-13T21:52:55.600Z,13.50
2022-10-13T21:55:27.753Z,14.40
2022-10-13T21:58:05.144Z,12.60
2022-10-13T22:00:37.794Z,11.50
2022-10-13T22:03:09.904Z,12.70
2022-10-13T22:05:42.095Z,15.70
2022-10-13T22:08:14.149Z,13.70
2022-10-13T22:10:46.271Z,14.30
2022-10-13T22:13:18.272Z,15.30
2022-10-13T22:15:50.638Z,12.10
2022-10-13T22:18:22.775Z,11.70
2022-10-13T22:20:54.868Z,12.70
2022-10-13T22:23:26.953Z,16.10
2022-10-13T22:25:59.013Z,10.50
2022-10-13T22:28:36.894Z,12.10
2022-10-13T22:31:11.353Z,11.50
2022-10-13T22:33:44.793Z,14.10
2022-10-13T22:36:18.848Z,14.30
2022-10-13T22:38:52.653Z,14.60
2022-10-13T22:41:24.799Z,11.50
2022-10-13T22:43:58.780Z,13.10
2022-10-13T22:46:33.113Z,16.60
2022-10-13T22:49:07.037Z,14.10
2022-10-13T22:51:39.325Z,13.60
2022-10-13T22:54:12.517Z,14.50
2022-10-13T22:56:44.613Z,15.10
2022-10-13T22:59:16.684Z,12.80
2022-10-13T23:01:50.091Z,13.30
2022-10-13T23:04:22.061Z,12.90
2022-10-13T23:06:54.207Z,14.50
2022-10-13T23:09:26.252Z,12.60
2022-10-13T23:11:59.909Z,11.60
2022-10-13T23:14:32.303Z,10.40
2022-10-13T23:17:04.505Z,12.00
2022-10-13T23:19:36.965Z,13.00
2022-10-13T23:22:09.209Z,11.80
2022-10-13T23:24:41.455Z,11.50
2022-10-13T23:27:13.732Z,13.40
2022-10-13T23:29:45.989Z,12.30
2022-10-13T23:32:18.149Z,12.10
2022-10-13T23:34:50.243Z,11.20
2022-10-13T23:37:22.733Z,11.70
2022-10-13T23:39:55.214Z,10.40
2022-10-13T23:42:27.316Z,12.10
2022-10-13T23:44:59.721Z,10.10
2022-10-13T23:47:31.816Z,11.50
2022-10-13T23:50:04.005Z,11.00
2022-10-13T23:52:36.079Z,12.30
2022-10-13T23:55:09.292Z,12.30
2022-10-13T23:57:41.360Z,12.10
